createdAt,value
2022-11-13T00:00:02.652Z,0
2022-11-13T00:05:03.466Z,0
2022-11-13T00:10:03.044Z,0
2022-11-13T00:15:03.086Z,0
2022-11-13T00:20:02.780Z,0
2022-11-13T00:25:02.522Z,0
2022-11-13T00:30:03.252Z,0
2022-11-13T00:35:02.906Z,0
2022-11-13T00:40:02.642Z,0
2022-11-13T00:45:02.583Z,0
2022-11-13T00:50:03.460Z,0
2022-11-13T00:55:04.206Z,0
2022-11-13T01:00:02.690Z,0
2022-11-13T01:05:03.401Z,0
2022-11-13T01:10:03.123Z,0
2022-11-13T01:15:02.919Z,0
2022-11-13T01:20:02.581Z,0
2022-11-13T01:25:03.592Z,0
2022-11-13T01:30:06.841Z,0
2022-11-13T01:35:03.657Z,0
2022-11-13T01:40:03.343Z,0
2022-11-13T01:45:03.093Z,0
2022-11-13T01:50:02.715Z,0
2022-11-13T01:55:04.831Z,0
2022-11-13T02:00:03.469Z,0
2022-11-13T02:05:02.868Z,0
2022-11-13T02:10:02.696Z,0
2022-11-13T02:15:03.173Z,0
2022-11-13T02:20:03.065Z,0
2022-11-13T02:25:02.756Z,0
2022-11-13T02:30:02.491Z,0
2022-11-13T02:35:03.486Z,0
2022-11-13T02:40:03.026Z,0
2022-11-13T02:45:02.955Z,0
2022-11-13T02:50:02.404Z,0
2022-11-13T02:55:04.311Z,0
2022-11-13T03:00:03.162Z,0
2022-11-13T03:05:14.590Z,0
2022-11-13T03:10:03.284Z,0
2022-11-13T03:15:03.189Z,0
2022-11-13T03:20:02.818Z,0
2022-11-13T03:25:11.548Z,0
2022-11-13T03:30:03.282Z,0
2022-11-13T03:35:03.025Z,0
2022-11-13T03:40:02.909Z,0
2022-11-13T03:45:03.379Z,0
2022-11-13T03:50:02.859Z,0
2022-11-13T03:55:04.836Z,0
2022-11-13T04:00:03.148Z,0
2022-11-13T04:10:02.733Z,0
2022-11-13T04:15:03.107Z,0
2022-11-13T04:20:02.550Z,0
2022-11-13T04:25:02.246Z,0
2022-11-13T04:30:03.372Z,0
2022-11-13T04:35:02.935Z,0
2022-11-13T04:45:03.303Z,0
2022-11-13T04:50:02.863Z,0
2022-11-13T05:00:03.644Z,0
2022-11-13T05:05:06.969Z,0
2022-11-13T05:10:02.777Z,0
2022-11-13T05:15:03.101Z,0
2022-11-13T05:20:02.641Z,0
2022-11-13T05:25:02.462Z,0
2022-11-13T05:30:03.518Z,0
2022-11-13T05:35:02.915Z,0
2022-11-13T05:40:02.770Z,0.23
2022-11-13T05:45:02.646Z,0.68
2022-11-13T05:50:03.326Z,2.15
2022-11-13T05:55:04.421Z,6
2022-11-13T06:00:03.299Z,5
2022-11-13T06:05:02.964Z,15
2022-11-13T06:15:03.641Z,46.67
2022-11-13T06:25:03.070Z,115
2022-11-13T06:30:02.835Z,163.33
2022-11-13T06:35:02.488Z,220
2022-11-13T06:40:02.667Z,281.67
2022-11-13T06:45:03.059Z,368.33
2022-11-13T06:50:03.061Z,475
2022-11-13T06:55:04.119Z,551.67
2022-11-13T07:00:03.577Z,771.67
2022-11-13T07:05:03.384Z,873.33
2022-11-13T07:10:03.054Z,1026.67
2022-11-13T07:15:02.640Z,1140
2022-11-13T07:20:03.436Z,1376.67
2022-11-13T07:25:03.381Z,1551.67
2022-11-13T07:30:04.500Z,1700
2022-11-13T07:35:02.671Z,1736.67
2022-11-13T07:40:02.316Z,1818.33
2022-11-13T07:45:03.172Z,1733.33
2022-11-13T07:50:08.263Z,1696.67
2022-11-13T07:55:04.311Z,1671.67
2022-11-13T08:00:02.532Z,1688.33
2022-11-13T08:05:02.719Z,1730
2022-11-13T08:10:03.528Z,1841.67
2022-11-13T08:15:03.702Z,1828.33
2022-11-13T08:20:03.299Z,1913.33
2022-11-13T08:25:02.969Z,1851.67
2022-11-13T08:35:03.013Z,2003.33
2022-11-13T08:40:02.714Z,2036.67
2022-11-13T08:45:02.424Z,1913.33
2022-11-13T08:50:03.202Z,2125
2022-11-13T08:55:04.528Z,2521.67
2022-11-13T09:00:02.869Z,2190
2022-11-13T09:05:02.809Z,2471.67
2022-11-13T09:10:02.461Z,2230
2022-11-13T09:15:02.346Z,2671.67
2022-11-13T09:20:04.502Z,2690
2022-11-13T09:25:03.068Z,2360
2022-11-13T09:30:02.921Z,2560
2022-11-13T09:35:03.150Z,2441.67
2022-11-13T09:45:03.111Z,2505
2022-11-13T09:50:03.566Z,2385
2022-11-13T09:55:03.866Z,2686.67
2022-11-13T10:00:02.466Z,2638.33
2022-11-13T10:05:03.600Z,2805
2022-11-13T10:10:02.457Z,2741.67
2022-11-13T10:15:03.157Z,2718.33
2022-11-13T10:20:02.234Z,2900
2022-11-13T10:25:03.163Z,2721.67
2022-11-13T10:30:10.118Z,2811.67
2022-11-13T10:35:02.779Z,3626.67
2022-11-13T10:45:12.670Z,3410
2022-11-13T10:50:03.187Z,3531.67
2022-11-13T10:55:04.266Z,3128.33
2022-11-13T11:00:03.607Z,3090
2022-11-13T11:05:02.799Z,3031.67
2022-11-13T11:10:02.821Z,2611.67
2022-11-13T11:15:02.594Z,2795
2022-11-13T11:20:03.350Z,2675
2022-11-13T11:25:03.047Z,2570
2022-11-13T11:35:02.674Z,2758.33
2022-11-13T11:40:03.397Z,4650
2022-11-13T11:45:03.181Z,3871.67
2022-11-13T11:50:02.879Z,2885
2022-11-13T11:55:03.870Z,4175
2022-11-13T12:00:03.054Z,3070
2022-11-13T12:05:02.441Z,4061.67
2022-11-13T12:10:02.189Z,5583.33
2022-11-13T12:15:03.580Z,5121.67
2022-11-13T12:20:02.911Z,7216.67
2022-11-13T12:25:03.626Z,6735
2022-11-13T12:30:03.338Z,6275
2022-11-13T12:35:03.464Z,5970
2022-11-13T12:40:03.305Z,5765
2022-11-13T12:45:03.075Z,5673.33
2022-11-13T12:50:02.727Z,6343.33
2022-11-13T12:55:04.795Z,6546.67
2022-11-13T13:00:03.153Z,6130
2022-11-13T13:05:02.924Z,4970
2022-11-13T13:10:03.445Z,3673.33
2022-11-13T13:15:03.153Z,3771.67
2022-11-13T13:20:02.835Z,4480
2022-11-13T13:25:02.984Z,4665
2022-11-13T13:30:02.715Z,4468.33
2022-11-13T13:40:02.844Z,3868.33
2022-11-13T13:45:02.601Z,3643.33
2022-11-13T13:50:02.283Z,3711.67
2022-11-13T13:55:04.768Z,3403.33
2022-11-13T14:00:02.805Z,2965
2022-11-13T14:05:02.496Z,2776.67
2022-11-13T14:10:02.579Z,2540
2022-11-13T14:15:02.744Z,2423.33
2022-11-13T14:20:03.560Z,2126.67
2022-11-13T14:25:03.611Z,1860
2022-11-13T14:30:03.137Z,1663.33
2022-11-13T14:35:02.794Z,1500
2022-11-13T14:40:02.817Z,1341.67
2022-11-13T14:45:02.810Z,1156.67
2022-11-13T14:50:03.452Z,925
2022-11-13T14:55:16.534Z,671.67
2022-11-13T15:00:02.802Z,586.67
2022-11-13T15:05:03.009Z,476.67
2022-11-13T15:10:02.795Z,383.33
2022-11-13T15:15:03.356Z,290
2022-11-13T15:20:10.123Z,213.33
2022-11-13T15:30:03.258Z,100
2022-11-13T15:35:02.748Z,60
2022-11-13T15:40:03.149Z,31.67
2022-11-13T15:45:03.110Z,15
2022-11-13T15:50:16.846Z,5
2022-11-13T15:55:04.526Z,5.89
2022-11-13T16:00:03.141Z,2.38
2022-11-13T16:05:03.392Z,0.91
2022-11-13T16:10:03.004Z,0.23
2022-11-13T16:15:02.917Z,0
2022-11-13T16:20:02.773Z,0
2022-11-13T16:25:03.537Z,0
2022-11-13T16:30:07.786Z,0
2022-11-13T16:35:02.944Z,0
2022-11-13T16:40:02.817Z,0
2022-11-13T16:45:03.465Z,0
2022-11-13T16:50:03.369Z,0
2022-11-13T16:55:07.140Z,0
2022-11-13T17:00:02.980Z,0
2022-11-13T17:05:02.679Z,0
2022-11-13T17:10:33.372Z,0
2022-11-13T17:15:03.741Z,0
2022-11-13T17:20:03.154Z,0
2022-11-13T17:25:02.664Z,0
2022-11-13T17:30:02.424Z,0
2022-11-13T17:35:03.081Z,0
2022-11-13T17:40:02.799Z,0
2022-11-13T17:45:02.613Z,0
2022-11-13T17:50:08.413Z,0
2022-11-13T17:55:04.038Z,0
2022-11-13T18:00:03.565Z,0
2022-11-13T18:05:03.245Z,0
2022-11-13T18:10:02.922Z,0
2022-11-13T18:15:02.658Z,0
2022-11-13T18:20:03.735Z,0
2022-11-13T18:25:03.277Z,0
2022-11-13T18:30:02.997Z,0
2022-11-13T18:35:02.705Z,0
2022-11-13T18:40:03.463Z,0
2022-11-13T18:45:06.789Z,0
2022-11-13T18:50:02.939Z,0
2022-11-13T18:55:03.657Z,0
2022-11-13T19:00:02.941Z,0
2022-11-13T19:05:02.282Z,0
2022-11-13T19:10:03.002Z,0
2022-11-13T19:15:02.799Z,0
2022-11-13T19:20:02.572Z,0
2022-11-13T19:25:02.661Z,0
2022-11-13T19:30:02.903Z,0
2022-11-13T19:35:02.625Z,0
2022-11-13T19:40:03.278Z,0
2022-11-13T19:45:03.027Z,0
2022-11-13T19:50:02.722Z,0
2022-11-13T19:55:04.724Z,0
2022-11-13T20:00:02.969Z,0
2022-11-13T20:05:02.329Z,0
2022-11-13T20:10:02.943Z,0
2022-11-13T20:15:02.650Z,0
2022-11-13T20:20:02.379Z,0
2022-11-13T20:25:03.069Z,0
2022-11-13T20:30:03.039Z,0
2022-11-13T20:35:02.671Z,0
2022-11-13T20:40:02.365Z,0
2022-11-13T20:45:03.116Z,0
2022-11-13T20:50:02.881Z,0
2022-11-13T20:55:04.292Z,0
2022-11-13T21:00:02.349Z,0
2022-11-13T21:05:02.972Z,0
2022-11-13T21:10:02.629Z,0
2022-11-13T21:15:02.353Z,0
2022-11-13T21:20:03.118Z,0
2022-11-13T21:25:02.860Z,0
2022-11-13T21:30:02.930Z,0
2022-11-13T21:35:02.236Z,0
2022-11-13T21:40:03.160Z,0
2022-11-13T21:45:03.167Z,0
2022-11-13T21:50:02.820Z,0
2022-11-13T21:55:04.400Z,0
2022-11-13T22:00:03.102Z,0
2022-11-13T22:05:02.693Z,0
2022-11-13T22:10:07.033Z,0
2022-11-13T22:15:02.843Z,0
2022-11-13T22:20:03.168Z,0
2022-11-13T22:25:03.162Z,0
2022-11-13T22:30:02.770Z,0
2022-11-13T22:35:02.337Z,0
2022-11-13T22:40:03.544Z,0
2022-11-13T22:45:07.273Z,0
2022-11-13T22:50:03.402Z,0
2022-11-13T22:55:04.737Z,0
2022-11-13T23:00:02.881Z,0
2022-11-13T23:05:02.853Z,0
2022-11-13T23:10:03.553Z,0
2022-11-13T23:15:02.314Z,0
2022-11-13T23:20:03.133Z,0
2022-11-13T23:25:02.810Z,0
2022-11-13T23:30:02.413Z,0
2022-11-13T23:35:03.508Z,0
2022-11-13T23:40:02.869Z,0
2022-11-13T23:45:02.841Z,0
2022-11-13T23:50:02.442Z,0
2022-11-13T23:55:04.533Z,0
